Weather at Adnan Menderes International Airport

Public forecast

Using degrees Celsius for public forecast. Weather courtesy of forecast.io.

Current aviation weather report (METAR) for Adnan Menderes International Airport

Retrieved 2021/04/17 14:20 UTC (21 minutes ago):

LTBJ 171420Z 19011KT CAVOK 24/06 Q1010 NOSIG RMK RWY16 19016KT

Aviation forecast (TAF) for Adnan Menderes International Airport

Retrieved 2021/04/17 12:03 UTC (3 hours ago):

TAF LTBJ 171040Z 1712/1812 18020G40KT CAVOK BECMG 1716/1718 16012KT BECMG 1720/1722 SCT035 BKN100 TEMPO 1722/1802 -SHRA BECMG 1800/1803 VRB02KT BECMG 1806/1809 16018G35KT